La Costa Gdns Homes, Puerto Rico
Current Conditions -  °F | °C
As of 11:53 AM on Friday 19 Dec 2014 (Local Time) from TJNR Reporting Station
Few Clouds Few Clouds  
Wind Chill: 84°   Ceiling: Unl
Heat Index: 87°   Visibility: 10mi
Dew Point: 68°   Wind: 8mph
Humidity: 58%   Direction: 60°ENE
Pressure: 30.03"   Gusts: NA
Location:  18.3304°N, 65.6573°W
Report Text: TJNR 191553Z AUTO 06007KT 10SM FEW037 29/20 A3003 RMK AO2 SLP168 T02890200
Loading
Personal Weather Stations






























Interactive Weather Map New forecast layout! Learn more

10-Day Weather Forecast

Advertisements
Track Severe Weather on mobile